createdAt,value
2023-01-11T00:01:32.347Z,4.60
2023-01-11T00:04:01.523Z,4.58
2023-01-11T00:06:29.443Z,4.53
2023-01-11T00:08:58.630Z,4.57
2023-01-11T00:11:26.527Z,4.60
2023-01-11T00:13:54.341Z,4.59
2023-01-11T00:16:22.179Z,4.61
2023-01-11T00:18:50.066Z,4.64
2023-01-11T00:21:19.264Z,4.64
2023-01-11T00:23:50.468Z,4.63
2023-01-11T00:26:18.240Z,4.65
2023-01-11T00:28:48.629Z,4.70
2023-01-11T00:31:16.768Z,4.70
2023-01-11T00:33:44.614Z,4.69
2023-01-11T00:36:12.499Z,4.71
2023-01-11T00:38:53.964Z,4.73
2023-01-11T00:41:41.122Z,4.76
2023-01-11T00:44:28.800Z,4.75
2023-01-11T00:47:14.798Z,4.75
2023-01-11T00:49:42.970Z,4.75
2023-01-11T00:52:11.830Z,4.78
2023-01-11T00:54:42.460Z,4.75
2023-01-11T00:57:10.391Z,4.74
2023-01-11T00:59:39.291Z,4.74
2023-01-11T01:02:08.320Z,4.78
2023-01-11T01:04:36.297Z,4.76
2023-01-11T01:07:04.400Z,4.76
2023-01-11T01:09:32.536Z,4.76
2023-01-11T01:12:02.868Z,4.77
2023-01-11T01:14:30.708Z,4.79
2023-01-11T01:17:00.537Z,4.76
2023-01-11T01:19:28.915Z,4.75
2023-01-11T01:21:57.612Z,4.77
2023-01-11T01:24:28.223Z,4.74
2023-01-11T01:26:56.654Z,4.74
2023-01-11T01:29:26.376Z,4.76
2023-01-11T01:31:54.220Z,4.73
2023-01-11T01:34:22.195Z,4.68
2023-01-11T01:36:50.045Z,4.73
2023-01-11T01:39:17.945Z,4.72
2023-01-11T01:41:45.913Z,4.71
2023-01-11T01:44:50.239Z,4.70
2023-01-11T01:47:21.886Z,4.66
2023-01-11T01:49:50.001Z,4.68
2023-01-11T01:52:18.322Z,4.65
2023-01-11T01:54:49.477Z,4.66
2023-01-11T01:57:23.320Z,4.68
2023-01-11T01:59:54.128Z,4.69
2023-01-11T02:02:26.281Z,4.69
2023-01-11T02:04:56.319Z,4.74
2023-01-11T02:07:28.181Z,4.77
2023-01-11T02:10:03.155Z,4.79
2023-01-11T02:12:35.715Z,4.79
2023-01-11T02:15:05.010Z,4.84
2023-01-11T02:17:34.357Z,4.83
2023-01-11T02:20:25.703Z,4.83
2023-01-11T02:23:27.436Z,4.79
2023-01-11T02:26:22.927Z,4.76
2023-01-11T02:28:57.036Z,4.74
2023-01-11T02:31:31.965Z,4.71
2023-01-11T02:34:10.774Z,4.75
2023-01-11T02:36:48.342Z,4.78
2023-01-11T02:39:22.445Z,4.82
2023-01-11T02:42:15.077Z,4.79
2023-01-11T02:45:03.096Z,4.81
2023-01-11T02:47:39.664Z,4.85
2023-01-11T02:50:17.701Z,4.86
2023-01-11T02:52:53.389Z,4.88
2023-01-11T02:55:25.953Z,4.90
2023-01-11T02:57:56.891Z,4.94
2023-01-11T03:00:26.863Z,4.97
2023-01-11T03:03:08.473Z,5.03
2023-01-11T03:05:41.306Z,5.05
2023-01-11T03:08:28.190Z,5.07
2023-01-11T03:11:05.025Z,5.09
2023-01-11T03:13:41.671Z,5.12
2023-01-11T03:16:27.087Z,5.16
2023-01-11T03:19:08.066Z,5.19
2023-01-11T03:21:48.829Z,5.22
2023-01-11T03:24:27.258Z,5.27
2023-01-11T03:27:10.097Z,5.29
2023-01-11T03:29:44.015Z,5.32
2023-01-11T03:32:25.003Z,5.35
2023-01-11T03:35:01.893Z,5.37
2023-01-11T03:37:34.265Z,5.38
2023-01-11T03:40:08.493Z,5.43
2023-01-11T03:43:00.222Z,5.43
2023-01-11T03:45:31.548Z,5.42
2023-01-11T03:48:04.952Z,5.43
2023-01-11T03:50:34.904Z,5.44
2023-01-11T03:53:06.912Z,5.45
2023-01-11T03:55:38.906Z,5.48
2023-01-11T03:58:08.969Z,5.50
2023-01-11T04:00:37.799Z,5.51
2023-01-11T04:03:09.614Z,5.53
2023-01-11T04:05:39.686Z,5.55
2023-01-11T04:08:07.628Z,5.55
2023-01-11T04:10:35.485Z,5.58
2023-01-11T04:13:03.342Z,5.57
2023-01-11T04:15:31.963Z,5.57
2023-01-11T04:18:04.841Z,5.59
2023-01-11T04:20:35.272Z,5.58
2023-01-11T04:23:03.219Z,5.61
2023-01-11T04:25:31.200Z,5.64
2023-01-11T04:27:59.321Z,5.67
2023-01-11T04:30:27.419Z,5.68
2023-01-11T04:32:55.227Z,5.72
2023-01-11T04:35:23.078Z,5.73
2023-01-11T04:37:54.329Z,5.73
2023-01-11T04:40:22.694Z,5.75
2023-01-11T04:42:49.705Z,5.79
2023-01-11T04:45:17.866Z,5.83
2023-01-11T04:47:45.773Z,5.85
2023-01-11T04:50:13.784Z,5.88
2023-01-11T04:52:41.890Z,5.89
2023-01-11T04:55:11.366Z,5.89
2023-01-11T04:57:39.632Z,5.89
2023-01-11T05:00:10.942Z,5.87
2023-01-11T05:02:39.021Z,5.90
2023-01-11T05:05:08.717Z,5.90
2023-01-11T05:07:37.531Z,5.90
2023-01-11T05:10:05.946Z,5.89
2023-01-11T05:12:35.309Z,5.88
2023-01-11T05:15:03.276Z,5.89
2023-01-11T05:17:31.108Z,5.87
2023-01-11T05:19:58.960Z,5.87
2023-01-11T05:22:26.988Z,5.89
2023-01-11T05:24:54.832Z,5.87
2023-01-11T05:27:22.685Z,5.87
2023-01-11T05:29:51.917Z,5.90
2023-01-11T05:32:19.832Z,5.88
2023-01-11T05:34:47.696Z,5.87
2023-01-11T05:37:15.486Z,5.88
2023-01-11T05:39:43.399Z,5.90
2023-01-11T05:42:11.274Z,5.94
2023-01-11T05:44:58.147Z,5.93
2023-01-11T05:47:27.584Z,5.93
2023-01-11T05:49:55.668Z,5.96
2023-01-11T05:52:23.464Z,5.97
2023-01-11T05:54:51.349Z,5.99
2023-01-11T05:57:19.224Z,5.98
2023-01-11T05:59:47.025Z,5.98
2023-01-11T06:02:15.332Z,5.99
2023-01-11T06:04:44.818Z,6.01
2023-01-11T06:07:12.788Z,6.03
2023-01-11T06:09:40.768Z,6.04
2023-01-11T06:12:08.811Z,6.03
2023-01-11T06:14:38.233Z,6.03
2023-01-11T06:17:06.190Z,6.05
2023-01-11T06:19:34.387Z,6.07
2023-01-11T06:22:03.699Z,6.08
2023-01-11T06:24:31.641Z,6.10
2023-01-11T06:26:59.473Z,6.13
2023-01-11T06:29:27.335Z,6.17
2023-01-11T06:31:55.262Z,6.17
2023-01-11T06:34:23.104Z,6.17
2023-01-11T06:36:50.928Z,6.16
2023-01-11T06:39:20.610Z,6.20
2023-01-11T06:41:48.444Z,6.24
2023-01-11T06:44:16.338Z,6.26
2023-01-11T06:46:44.092Z,6.26
2023-01-11T06:49:12.174Z,6.24
2023-01-11T06:51:39.924Z,6.26
2023-01-11T06:54:07.738Z,6.27
2023-01-11T06:56:36.940Z,6.28
2023-01-11T06:59:04.840Z,6.31
2023-01-11T07:01:32.964Z,6.29
2023-01-11T07:04:00.889Z,6.29
2023-01-11T07:06:31.964Z,6.28
2023-01-11T07:08:59.842Z,6.29
2023-01-11T07:11:27.670Z,6.29
2023-01-11T07:13:57.213Z,6.30
2023-01-11T07:16:25.124Z,6.32
2023-01-11T07:18:52.979Z,6.38
2023-01-11T07:21:20.775Z,6.38
2023-01-11T07:23:49.328Z,6.38
2023-01-11T07:26:17.621Z,6.39
2023-01-11T07:28:45.420Z,6.40
2023-01-11T07:31:14.739Z,6.40
2023-01-11T07:33:42.572Z,6.38
2023-01-11T07:36:10.864Z,6.41
2023-01-11T07:38:38.681Z,6.45
2023-01-11T07:41:26.768Z,6.47
2023-01-11T07:43:53.683Z,6.51
2023-01-11T07:46:22.966Z,6.54
2023-01-11T07:48:50.810Z,6.60
2023-01-11T07:51:20.583Z,6.64
2023-01-11T07:53:48.741Z,6.67
2023-01-11T07:56:16.569Z,6.72
2023-01-11T07:58:44.372Z,6.76
2023-01-11T08:01:12.116Z,6.83
2023-01-11T08:03:41.443Z,6.86
2023-01-11T08:06:09.304Z,6.94
2023-01-11T08:08:37.176Z,7.00
2023-01-11T08:11:22.486Z,6.98
2023-01-11T08:14:22.257Z,7.02
2023-01-11T08:16:50.228Z,7.04
2023-01-11T08:19:19.539Z,7.03
2023-01-11T08:21:47.315Z,7.05
2023-01-11T08:24:15.332Z,7.06
2023-01-11T08:26:43.207Z,7.07
2023-01-11T08:29:11.348Z,7.10
2023-01-11T08:31:39.901Z,7.09
2023-01-11T08:34:09.194Z,7.13
2023-01-11T08:36:38.498Z,7.17
2023-01-11T08:39:06.477Z,7.22
2023-01-11T08:41:34.311Z,7.24
2023-01-11T08:44:02.165Z,7.31
2023-01-11T08:46:30.156Z,7.33
2023-01-11T08:48:57.937Z,7.39
2023-01-11T08:51:25.824Z,7.39
2023-01-11T08:53:55.094Z,7.40
2023-01-11T08:56:22.983Z,7.41
2023-01-11T08:58:50.804Z,7.42
2023-01-11T09:01:18.669Z,7.45
2023-01-11T09:03:46.535Z,7.45
2023-01-11T09:06:14.498Z,7.46
2023-01-11T09:08:42.708Z,7.47
2023-01-11T09:11:25.943Z,7.48
2023-01-11T09:13:53.750Z,7.49
2023-01-11T09:16:21.686Z,7.49
2023-01-11T09:18:49.632Z,7.50
2023-01-11T09:21:18.012Z,7.50
2023-01-11T09:23:45.829Z,7.50
2023-01-11T09:26:15.896Z,7.49
2023-01-11T09:28:43.717Z,7.51
2023-01-11T09:31:11.652Z,7.52
2023-01-11T09:33:39.595Z,7.53
2023-01-11T09:36:08.252Z,7.55
2023-01-11T09:38:38.027Z,7.57
2023-01-11T09:41:23.171Z,7.55
2023-01-11T09:43:59.500Z,7.59
2023-01-11T09:46:29.321Z,7.65
2023-01-11T09:49:00.396Z,7.63
2023-01-11T09:51:34.381Z,7.62
2023-01-11T09:54:06.014Z,7.65
2023-01-11T09:56:45.818Z,7.66
2023-01-11T09:59:24.241Z,7.67
2023-01-11T10:02:01.495Z,7.66
2023-01-11T10:05:00.778Z,7.70
2023-01-11T10:07:49.728Z,7.72
2023-01-11T10:18:39.851Z,7.79
2023-01-11T10:19:39.871Z,7.80
2023-01-11T10:22:13.267Z,7.81
2023-01-11T10:24:46.970Z,7.81
2023-01-11T10:27:22.537Z,7.84
2023-01-11T10:30:12.717Z,7.87
2023-01-11T10:32:54.105Z,7.90
2023-01-11T10:35:58.880Z,7.91
2023-01-11T10:38:51.433Z,7.94
2023-01-11T10:41:33.883Z,7.95
2023-01-11T10:44:11.453Z,7.98
2023-01-11T10:46:44.537Z,7.99
2023-01-11T10:49:32.190Z,7.99
2023-01-11T10:52:12.349Z,8.02
2023-01-11T10:54:46.820Z,8.02
2023-01-11T10:57:22.881Z,8.04
2023-01-11T11:00:14.388Z,8.09
2023-01-11T11:03:05.972Z,8.11
2023-01-11T11:05:44.908Z,8.15
2023-01-11T11:08:22.532Z,8.14
2023-01-11T11:10:57.596Z,8.13
2023-01-11T11:13:39.075Z,8.13
2023-01-11T11:16:26.487Z,8.15
2023-01-11T11:18:58.347Z,8.18
2023-01-11T11:21:31.479Z,8.19
2023-01-11T11:24:02.914Z,8.23
2023-01-11T11:26:38.390Z,8.24
2023-01-11T11:29:08.236Z,8.29
2023-01-11T11:31:38.530Z,8.30
2023-01-11T11:34:08.002Z,8.33
2023-01-11T11:36:44.473Z,8.32
2023-01-11T11:39:20.495Z,8.33
2023-01-11T11:41:50.125Z,8.33
2023-01-11T11:44:21.604Z,8.33
2023-01-11T11:47:00.151Z,8.33
2023-01-11T11:49:28.869Z,8.35
2023-01-11T11:51:59.992Z,8.35
2023-01-11T11:54:30.542Z,8.37
2023-01-11T11:57:00.508Z,8.37
2023-01-11T11:59:33.065Z,8.38
2023-01-11T12:02:04.625Z,8.41
2023-01-11T12:04:43.831Z,8.42
2023-01-11T12:07:17.248Z,8.42
2023-01-11T12:09:48.552Z,8.42
2023-01-11T12:12:19.601Z,8.41
2023-01-11T12:15:10.116Z,8.42
2023-01-11T12:17:38.190Z,8.43
2023-01-11T12:20:28.159Z,8.45
2023-01-11T12:23:14.787Z,8.46
2023-01-11T12:25:54.114Z,8.48
2023-01-11T12:28:33.726Z,8.46
2023-01-11T12:31:11.908Z,8.45
2023-01-11T12:33:47.663Z,8.45
2023-01-11T12:36:25.787Z,8.45
2023-01-11T12:39:07.872Z,8.45
2023-01-11T12:41:53.903Z,8.45
2023-01-11T12:44:33.748Z,8.43
2023-01-11T12:47:21.120Z,8.43
2023-01-11T12:49:58.808Z,8.41
2023-01-11T12:52:42.222Z,8.39
2023-01-11T12:55:36.348Z,8.37
2023-01-11T12:58:14.413Z,8.37
2023-01-11T13:01:21.372Z,8.37
2023-01-11T13:04:17.544Z,8.38
2023-01-11T13:06:57.928Z,8.40
2023-01-11T13:09:37.861Z,8.43
2023-01-11T13:12:14.861Z,8.44
2023-01-11T13:14:56.797Z,8.43
2023-01-11T13:17:33.745Z,8.44
2023-01-11T13:20:18.025Z,8.44
2023-01-11T13:22:50.460Z,8.42
2023-01-11T13:25:21.994Z,8.43
2023-01-11T13:27:52.654Z,8.43
2023-01-11T13:30:24.306Z,8.47
2023-01-11T13:32:56.980Z,8.49
2023-01-11T13:35:34.660Z,8.50
2023-01-11T13:38:11.058Z,8.49
2023-01-11T13:40:45.790Z,8.47
2023-01-11T13:43:22.107Z,8.50
2023-01-11T13:45:54.066Z,8.46
2023-01-11T13:48:27.998Z,8.45
2023-01-11T13:51:02.551Z,8.43
2023-01-11T13:53:38.406Z,8.41
2023-01-11T13:56:13.535Z,8.41
2023-01-11T13:58:52.956Z,8.42
2023-01-11T14:01:28.478Z,8.42
2023-01-11T14:04:02.091Z,8.42
2023-01-11T14:06:51.526Z,8.43
2023-01-11T14:09:41.867Z,8.44
2023-01-11T14:12:21.417Z,8.48
2023-01-11T14:15:05.255Z,8.46
2023-01-11T14:17:54.488Z,8.44
2023-01-11T14:20:30.274Z,8.43
2023-01-11T14:23:06.336Z,8.44
2023-01-11T14:25:42.930Z,8.43
2023-01-11T14:28:31.329Z,8.44
2023-01-11T14:31:26.371Z,8.42
2023-01-11T14:34:19.179Z,8.39
2023-01-11T14:37:10.938Z,8.35
2023-01-11T14:39:50.415Z,8.30
2023-01-11T14:43:00.021Z,8.29
2023-01-11T14:45:46.642Z,8.24
2023-01-11T14:48:26.222Z,8.22
2023-01-11T14:51:16.469Z,8.19
2023-01-11T14:53:50.446Z,8.15
2023-01-11T14:56:35.419Z,8.14
2023-01-11T14:59:05.756Z,8.11
2023-01-11T15:02:06.845Z,8.09
2023-01-11T15:04:37.533Z,8.07
2023-01-11T15:07:24.342Z,8.02
2023-01-11T15:09:53.760Z,8.00
2023-01-11T15:12:23.461Z,7.97
2023-01-11T15:14:55.653Z,7.91
2023-01-11T15:17:44.894Z,7.91
2023-01-11T15:20:17.251Z,7.90
2023-01-11T15:22:46.450Z,7.87
2023-01-11T15:25:23.394Z,7.85
2023-01-11T15:27:52.075Z,7.82
2023-01-11T15:30:39.917Z,7.80
2023-01-11T15:33:29.344Z,7.78
2023-01-11T15:36:07.842Z,7.75
2023-01-11T15:38:38.595Z,7.71
2023-01-11T15:41:32.155Z,7.71
2023-01-11T15:44:16.792Z,7.68
2023-01-11T15:47:21.117Z,7.63
2023-01-11T15:50:33.147Z,7.62
2023-01-11T15:53:32.455Z,7.59
2023-01-11T15:56:29.919Z,7.59
2023-01-11T15:59:30.964Z,7.55
2023-01-11T16:02:52.750Z,7.55
2023-01-11T16:05:24.857Z,7.49
2023-01-11T16:08:04.636Z,7.52
2023-01-11T16:10:49.024Z,7.48
2023-01-11T16:13:32.057Z,7.47
2023-01-11T16:16:10.335Z,7.43
2023-01-11T16:18:43.803Z,7.41
2023-01-11T16:21:18.662Z,7.40
2023-01-11T16:23:47.291Z,7.40
2023-01-11T16:26:21.816Z,7.35
2023-01-11T16:28:51.797Z,7.36
2023-01-11T16:31:20.445Z,7.30
2023-01-11T16:33:50.098Z,7.28
2023-01-11T16:36:21.118Z,7.29
2023-01-11T16:39:00.729Z,7.24
2023-01-11T16:41:33.802Z,7.21
2023-01-11T16:44:04.625Z,7.19
2023-01-11T16:47:18.134Z,7.17
2023-01-11T16:49:52.260Z,7.17
2023-01-11T16:52:38.973Z,7.15
2023-01-11T16:55:19.709Z,7.14
2023-01-11T16:57:53.403Z,7.10
2023-01-11T17:00:27.390Z,7.12
2023-01-11T17:03:05.701Z,7.08
2023-01-11T17:05:33.687Z,7.07
2023-01-11T17:08:01.588Z,7.04
2023-01-11T17:10:31.018Z,7.01
2023-01-11T17:13:35.256Z,7.01
2023-01-11T17:16:09.359Z,6.94
2023-01-11T17:18:40.866Z,6.95
2023-01-11T17:21:19.072Z,6.95
2023-01-11T17:23:48.763Z,6.89
2023-01-11T17:26:20.545Z,6.89
2023-01-11T17:28:53.977Z,6.87
2023-01-11T17:31:25.028Z,6.82
2023-01-11T17:34:02.736Z,6.77
2023-01-11T17:36:31.374Z,6.81
2023-01-11T17:39:00.127Z,6.77
2023-01-11T17:41:46.947Z,6.71
2023-01-11T17:44:36.552Z,6.74
2023-01-11T17:47:08.136Z,6.75
2023-01-11T17:49:37.758Z,6.75
2023-01-11T17:52:10.415Z,6.76
2023-01-11T17:54:38.345Z,6.77
2023-01-11T17:57:06.613Z,6.80
2023-01-11T17:59:35.889Z,6.81
2023-01-11T18:02:12.159Z,6.80
2023-01-11T18:04:40.295Z,6.77
2023-01-11T18:07:11.100Z,6.75
2023-01-11T18:09:44.976Z,6.73
2023-01-11T18:12:17.595Z,6.71
2023-01-11T18:14:53.554Z,6.68
2023-01-11T18:17:38.958Z,6.65
2023-01-11T18:20:34.848Z,6.54
2023-01-11T18:23:05.404Z,6.52
2023-01-11T18:25:35.103Z,6.44
2023-01-11T18:28:27.699Z,6.41
2023-01-11T18:31:01.691Z,6.35
2023-01-11T18:33:32.141Z,6.32
2023-01-11T18:36:01.801Z,6.22
2023-01-11T18:38:31.680Z,6.19
2023-01-11T18:41:21.498Z,6.16
2023-01-11T18:43:49.352Z,6.08
2023-01-11T18:46:18.642Z,6.05
2023-01-11T18:48:46.707Z,6.02
2023-01-11T18:51:17.914Z,5.94
2023-01-11T18:53:45.753Z,5.90
2023-01-11T18:56:16.245Z,5.83
2023-01-11T18:58:44.167Z,5.76
2023-01-11T19:01:12.383Z,5.74
2023-01-11T19:03:43.760Z,5.73
2023-01-11T19:06:14.331Z,5.70
2023-01-11T19:08:42.175Z,5.68
2023-01-11T19:11:10.147Z,5.69
2023-01-11T19:13:38.039Z,5.69
2023-01-11T19:16:06.929Z,5.70
2023-01-11T19:18:35.394Z,5.68
2023-01-11T19:21:06.535Z,5.62
2023-01-11T19:23:35.135Z,5.59
2023-01-11T19:26:03.084Z,5.59
2023-01-11T19:28:31.173Z,5.58
2023-01-11T19:30:59.217Z,5.54
2023-01-11T19:33:27.178Z,5.51
2023-01-11T19:35:54.961Z,5.54
2023-01-11T19:38:24.126Z,5.43
2023-01-11T19:40:51.920Z,5.51
2023-01-11T19:43:19.767Z,5.55
2023-01-11T19:45:56.376Z,5.54
2023-01-11T19:48:24.328Z,5.48
2023-01-11T19:50:52.269Z,5.49
2023-01-11T19:53:20.116Z,5.50
2023-01-11T19:55:49.255Z,5.50
2023-01-11T19:58:17.072Z,5.50
2023-01-11T20:00:44.971Z,5.48
2023-01-11T20:03:12.810Z,5.52
2023-01-11T20:05:40.631Z,5.45
2023-01-11T20:08:08.485Z,5.45
2023-01-11T20:10:36.325Z,5.47
2023-01-11T20:13:05.526Z,5.44
2023-01-11T20:15:33.489Z,5.43
2023-01-11T20:18:01.894Z,5.42
2023-01-11T20:20:29.787Z,5.39
2023-01-11T20:22:57.660Z,5.37
2023-01-11T20:25:25.723Z,5.33
2023-01-11T20:27:53.755Z,5.29
2023-01-11T20:30:22.878Z,5.29
2023-01-11T20:32:52.171Z,5.28
2023-01-11T20:35:20.017Z,5.28
2023-01-11T20:37:47.999Z,5.29
2023-01-11T20:40:16.082Z,5.29
2023-01-11T20:42:44.697Z,5.33
2023-01-11T20:45:12.636Z,5.34
2023-01-11T20:47:41.845Z,5.35
2023-01-11T20:50:10.851Z,5.35
2023-01-11T20:52:38.683Z,5.39
2023-01-11T20:55:07.523Z,5.38
2023-01-11T20:57:35.371Z,5.40
2023-01-11T21:00:03.226Z,5.41
2023-01-11T21:02:31.097Z,5.41
2023-01-11T21:05:00.302Z,5.42
2023-01-11T21:07:28.148Z,5.43
2023-01-11T21:09:56.267Z,5.41
2023-01-11T21:12:24.209Z,5.41
2023-01-11T21:14:52.182Z,5.41
2023-01-11T21:17:21.030Z,5.40
2023-01-11T21:19:48.911Z,5.39
2023-01-11T21:22:18.128Z,5.40
2023-01-11T21:24:46.003Z,5.38
2023-01-11T21:27:13.927Z,5.37
2023-01-11T21:29:41.796Z,5.34
2023-01-11T21:32:09.890Z,5.32
2023-01-11T21:34:37.891Z,5.32
2023-01-11T21:37:05.715Z,5.31
2023-01-11T21:39:35.085Z,5.28
2023-01-11T21:42:03.640Z,5.26
2023-01-11T21:44:33.620Z,5.29
2023-01-11T21:47:02.125Z,5.26
2023-01-11T21:49:30.221Z,5.23
2023-01-11T21:51:58.528Z,5.20
2023-01-11T21:54:26.588Z,5.16
2023-01-11T21:56:55.801Z,5.17
2023-01-11T21:59:24.558Z,5.13
2023-01-11T22:01:52.586Z,5.14
2023-01-11T22:04:22.086Z,5.13
2023-01-11T22:06:54.499Z,5.09
2023-01-11T22:09:24.295Z,5.10
2023-01-11T22:11:52.166Z,5.08
2023-01-11T22:14:21.510Z,5.06
2023-01-11T22:16:49.395Z,5.09
2023-01-11T22:19:17.821Z,5.05
2023-01-11T22:21:45.753Z,5.08
2023-01-11T22:24:13.836Z,5.10
2023-01-11T22:26:42.115Z,5.07
2023-01-11T22:29:14.956Z,5.05
2023-01-11T22:31:47.061Z,5.08
2023-01-11T22:34:15.945Z,5.11
2023-01-11T22:36:43.956Z,5.06
2023-01-11T22:39:13.136Z,5.09
2023-01-11T22:41:41.221Z,5.09
2023-01-11T22:44:09.487Z,5.08
2023-01-11T22:46:37.463Z,5.12
2023-01-11T22:49:07.117Z,5.12
2023-01-11T22:51:35.900Z,5.06
2023-01-11T22:54:05.412Z,5.11
2023-01-11T22:56:33.747Z,5.12
2023-01-11T22:59:01.869Z,5.09
2023-01-11T23:01:31.551Z,5.12
2023-01-11T23:04:00.337Z,5.12
2023-01-11T23:06:31.703Z,5.05
2023-01-11T23:08:59.825Z,5.03
2023-01-11T23:11:46.790Z,5.06
2023-01-11T23:14:17.535Z,5.06
2023-01-11T23:16:47.142Z,5.02
2023-01-11T23:19:18.146Z,4.97
2023-01-11T23:21:48.410Z,5.02
2023-01-11T23:24:17.830Z,5.00
2023-01-11T23:26:46.221Z,4.99
2023-01-11T23:29:14.530Z,4.97
2023-01-11T23:31:43.534Z,4.98
2023-01-11T23:34:12.914Z,4.98
2023-01-11T23:36:42.248Z,4.98
2023-01-11T23:39:15.044Z,4.93
2023-01-11T23:42:00.338Z,4.94
2023-01-11T23:44:28.397Z,4.96
2023-01-11T23:47:13.828Z,4.96
2023-01-11T23:49:43.175Z,4.95
2023-01-11T23:52:11.518Z,4.94
2023-01-11T23:54:41.249Z,4.91
2023-01-11T23:57:09.352Z,4.90
2023-01-11T23:59:37.218Z,4.90
